sensor_id;sensor_type;location;lat;lon;timestamp;P1;durP1;ratioP1;P2;durP2;ratioP2
59062;SDS011;44851;45.648;9.004;2023-05-09T00:01:52;8.67;;;7.80;;
59062;SDS011;44851;45.648;9.004;2023-05-09T00:04:18;8.80;;;6.77;;
59062;SDS011;44851;45.648;9.004;2023-05-09T00:06:44;7.73;;;7.03;;
59062;SDS011;44851;45.648;9.004;2023-05-09T00:09:09;8.07;;;7.27;;
59062;SDS011;44851;45.648;9.004;2023-05-09T00:11:36;8.03;;;7.23;;
59062;SDS011;44851;45.648;9.004;2023-05-09T00:14:01;9.10;;;7.80;;
59062;SDS011;44851;45.648;9.004;2023-05-09T00:16:27;8.30;;;7.50;;
59062;SDS011;44851;45.648;9.004;2023-05-09T00:18:53;8.97;;;7.70;;
59062;SDS011;44851;45.648;9.004;2023-05-09T00:21:20;8.50;;;7.80;;
59062;SDS011;44851;45.648;9.004;2023-05-09T00:23:45;9.07;;;8.17;;
59062;SDS011;44851;45.648;9.004;2023-05-09T00:26:11;8.97;;;8.17;;
59062;SDS011;44851;45.648;9.004;2023-05-09T00:28:36;10.10;;;9.20;;
59062;SDS011;44851;45.648;9.004;2023-05-09T00:31:02;9.60;;;8.70;;
59062;SDS011;44851;45.648;9.004;2023-05-09T00:33:28;9.70;;;8.80;;
59062;SDS011;44851;45.648;9.004;2023-05-09T00:35:53;9.37;;;8.47;;
59062;SDS011;44851;45.648;9.004;2023-05-09T00:38:18;9.23;;;8.47;;
59062;SDS011;44851;45.648;9.004;2023-05-09T00:40:44;9.43;;;8.63;;
59062;SDS011;44851;45.648;9.004;2023-05-09T00:43:09;9.53;;;8.63;;
59062;SDS011;44851;45.648;9.004;2023-05-09T00:45:34;9.30;;;8.40;;
59062;SDS011;44851;45.648;9.004;2023-05-09T00:48:00;9.83;;;9.00;;
59062;SDS011;44851;45.648;9.004;2023-05-09T00:50:25;10.13;;;9.23;;
59062;SDS011;44851;45.648;9.004;2023-05-09T00:52:51;9.77;;;8.90;;
59062;SDS011;44851;45.648;9.004;2023-05-09T00:55:17;9.13;;;8.33;;
59062;SDS011;44851;45.648;9.004;2023-05-09T00:57:43;9.87;;;8.97;;
59062;SDS011;44851;45.648;9.004;2023-05-09T01:00:09;9.93;;;9.03;;
59062;SDS011;44851;45.648;9.004;2023-05-09T01:02:41;9.73;;;8.93;;
59062;SDS011;44851;45.648;9.004;2023-05-09T01:05:08;10.23;;;9.33;;
59062;SDS011;44851;45.648;9.004;2023-05-09T01:07:40;9.53;;;8.63;;
59062;SDS011;44851;45.648;9.004;2023-05-09T01:12:53;10.20;;;9.30;;
59062;SDS011;44851;45.648;9.004;2023-05-09T01:18:08;10.33;;;9.43;;
59062;SDS011;44851;45.648;9.004;2023-05-09T01:29:24;11.13;;;10.13;;
59062;SDS011;44851;45.648;9.004;2023-05-09T01:32:07;11.20;;;10.27;;
59062;SDS011;44851;45.648;9.004;2023-05-09T01:34:35;11.63;;;10.53;;
59062;SDS011;44851;45.648;9.004;2023-05-09T01:37:03;11.07;;;10.07;;
59062;SDS011;44851;45.648;9.004;2023-05-09T01:39:30;11.70;;;10.60;;
59062;SDS011;44851;45.648;9.004;2023-05-09T01:41:59;10.87;;;9.97;;
59062;SDS011;44851;45.648;9.004;2023-05-09T01:44:27;10.47;;;9.50;;
59062;SDS011;44851;45.648;9.004;2023-05-09T01:47:01;10.80;;;9.90;;
59062;SDS011;44851;45.648;9.004;2023-05-09T01:49:28;11.10;;;10.10;;
59062;SDS011;44851;45.648;9.004;2023-05-09T01:51:56;11.43;;;10.33;;
59062;SDS011;44851;45.648;9.004;2023-05-09T01:54:23;10.80;;;9.80;;
59062;SDS011;44851;45.648;9.004;2023-05-09T01:56:50;10.33;;;9.30;;
59062;SDS011;44851;45.648;9.004;2023-05-09T01:59:18;10.43;;;9.53;;
59062;SDS011;44851;45.648;9.004;2023-05-09T02:01:45;10.33;;;9.43;;
59062;SDS011;44851;45.648;9.004;2023-05-09T02:04:11;10.73;;;9.73;;
59062;SDS011;44851;45.648;9.004;2023-05-09T02:06:39;10.87;;;9.97;;
59062;SDS011;44851;45.648;9.004;2023-05-09T02:09:06;11.40;;;10.37;;
59062;SDS011;44851;45.648;9.004;2023-05-09T02:11:32;11.23;;;10.13;;
59062;SDS011;44851;45.648;9.004;2023-05-09T02:13:57;11.60;;;10.60;;
59062;SDS011;44851;45.648;9.004;2023-05-09T02:16:23;10.40;;;9.27;;
59062;SDS011;44851;45.648;9.004;2023-05-09T02:18:49;10.77;;;9.87;;
59062;SDS011;44851;45.648;9.004;2023-05-09T02:21:14;10.87;;;9.87;;
59062;SDS011;44851;45.648;9.004;2023-05-09T02:23:39;10.33;;;9.43;;
59062;SDS011;44851;45.648;9.004;2023-05-09T02:26:05;10.50;;;9.60;;
59062;SDS011;44851;45.648;9.004;2023-05-09T02:28:30;10.67;;;9.73;;
59062;SDS011;44851;45.648;9.004;2023-05-09T02:30:57;9.70;;;8.90;;
59062;SDS011;44851;45.648;9.004;2023-05-09T02:33:26;9.33;;;8.43;;
59062;SDS011;44851;45.648;9.004;2023-05-09T02:35:52;10.20;;;9.20;;
59062;SDS011;44851;45.648;9.004;2023-05-09T02:38:18;10.00;;;9.10;;
59062;SDS011;44851;45.648;9.004;2023-05-09T02:40:44;9.67;;;8.87;;
59062;SDS011;44851;45.648;9.004;2023-05-09T02:43:11;9.83;;;8.93;;
59062;SDS011;44851;45.648;9.004;2023-05-09T02:45:36;10.03;;;9.13;;
59062;SDS011;44851;45.648;9.004;2023-05-09T02:48:02;9.70;;;8.90;;
59062;SDS011;44851;45.648;9.004;2023-05-09T02:50:27;10.10;;;9.10;;
59062;SDS011;44851;45.648;9.004;2023-05-09T02:52:53;8.87;;;8.10;;
59062;SDS011;44851;45.648;9.004;2023-05-09T02:55:18;9.17;;;8.27;;
59062;SDS011;44851;45.648;9.004;2023-05-09T02:57:44;8.83;;;8.03;;
59062;SDS011;44851;45.648;9.004;2023-05-09T03:00:09;9.23;;;8.33;;
59062;SDS011;44851;45.648;9.004;2023-05-09T03:02:35;10.13;;;9.13;;
59062;SDS011;44851;45.648;9.004;2023-05-09T03:05:01;10.30;;;9.30;;
59062;SDS011;44851;45.648;9.004;2023-05-09T03:07:27;10.10;;;9.27;;
59062;SDS011;44851;45.648;9.004;2023-05-09T03:09:53;11.23;;;10.23;;
59062;SDS011;44851;45.648;9.004;2023-05-09T03:12:18;10.50;;;9.50;;
59062;SDS011;44851;45.648;9.004;2023-05-09T03:14:44;9.90;;;9.07;;
59062;SDS011;44851;45.648;9.004;2023-05-09T03:17:09;10.27;;;9.27;;
59062;SDS011;44851;45.648;9.004;2023-05-09T03:19:34;11.60;;;10.50;;
59062;SDS011;44851;45.648;9.004;2023-05-09T03:22:00;11.20;;;10.10;;
59062;SDS011;44851;45.648;9.004;2023-05-09T03:24:25;9.73;;;8.83;;
59062;SDS011;44851;45.648;9.004;2023-05-09T03:26:52;10.73;;;9.83;;
59062;SDS011;44851;45.648;9.004;2023-05-09T03:29:17;9.97;;;9.10;;
59062;SDS011;44851;45.648;9.004;2023-05-09T03:31:43;10.97;;;9.97;;
59062;SDS011;44851;45.648;9.004;2023-05-09T03:34:08;10.80;;;9.70;;
59062;SDS011;44851;45.648;9.004;2023-05-09T03:36:38;10.37;;;9.33;;
59062;SDS011;44851;45.648;9.004;2023-05-09T03:39:05;10.27;;;9.27;;
59062;SDS011;44851;45.648;9.004;2023-05-09T03:41:32;10.17;;;9.27;;
59062;SDS011;44851;45.648;9.004;2023-05-09T03:43:59;10.50;;;9.50;;
59062;SDS011;44851;45.648;9.004;2023-05-09T03:46:25;10.80;;;9.80;;
59062;SDS011;44851;45.648;9.004;2023-05-09T03:48:50;10.53;;;9.60;;
59062;SDS011;44851;45.648;9.004;2023-05-09T03:51:16;10.97;;;9.60;;
59062;SDS011;44851;45.648;9.004;2023-05-09T03:53:41;10.73;;;9.73;;
59062;SDS011;44851;45.648;9.004;2023-05-09T03:56:07;10.20;;;9.30;;
59062;SDS011;44851;45.648;9.004;2023-05-09T03:58:33;10.57;;;9.63;;
59062;SDS011;44851;45.648;9.004;2023-05-09T04:00:58;10.73;;;9.73;;
59062;SDS011;44851;45.648;9.004;2023-05-09T04:03:23;10.63;;;9.63;;
59062;SDS011;44851;45.648;9.004;2023-05-09T04:05:49;10.17;;;9.20;;
59062;SDS011;44851;45.648;9.004;2023-05-09T04:08:14;10.80;;;9.80;;
59062;SDS011;44851;45.648;9.004;2023-05-09T04:10:40;11.37;;;10.27;;
59062;SDS011;44851;45.648;9.004;2023-05-09T04:13:05;10.97;;;9.97;;
59062;SDS011;44851;45.648;9.004;2023-05-09T04:15:31;11.70;;;10.60;;
59062;SDS011;44851;45.648;9.004;2023-05-09T04:17:56;11.87;;;10.77;;
59062;SDS011;44851;45.648;9.004;2023-05-09T04:20:21;12.03;;;10.93;;
59062;SDS011;44851;45.648;9.004;2023-05-09T04:22:47;11.83;;;10.73;;
59062;SDS011;44851;45.648;9.004;2023-05-09T04:25:12;12.10;;;10.90;;
59062;SDS011;44851;45.648;9.004;2023-05-09T04:27:38;12.63;;;11.33;;
59062;SDS011;44851;45.648;9.004;2023-05-09T04:30:04;12.00;;;11.00;;
59062;SDS011;44851;45.648;9.004;2023-05-09T04:32:30;12.83;;;11.53;;
59062;SDS011;44851;45.648;9.004;2023-05-09T04:34:55;12.37;;;11.17;;
59062;SDS011;44851;45.648;9.004;2023-05-09T04:37:21;12.40;;;11.20;;
59062;SDS011;44851;45.648;9.004;2023-05-09T04:39:46;13.03;;;11.83;;
59062;SDS011;44851;45.648;9.004;2023-05-09T04:42:12;15.17;;;13.00;;
59062;SDS011;44851;45.648;9.004;2023-05-09T04:44:37;13.93;;;12.60;;
59062;SDS011;44851;45.648;9.004;2023-05-09T04:47:02;13.50;;;12.23;;
59062;SDS011;44851;45.648;9.004;2023-05-09T04:49:28;12.70;;;11.53;;
59062;SDS011;44851;45.648;9.004;2023-05-09T04:51:53;12.97;;;11.87;;
59062;SDS011;44851;45.648;9.004;2023-05-09T04:54:18;12.70;;;11.43;;
59062;SDS011;44851;45.648;9.004;2023-05-09T04:56:44;13.10;;;11.93;;
59062;SDS011;44851;45.648;9.004;2023-05-09T04:59:09;13.77;;;12.33;;
59062;SDS011;44851;45.648;9.004;2023-05-09T05:01:34;14.33;;;12.70;;
59062;SDS011;44851;45.648;9.004;2023-05-09T05:04:00;13.13;;;11.93;;
59062;SDS011;44851;45.648;9.004;2023-05-09T05:06:25;13.87;;;12.57;;
59062;SDS011;44851;45.648;9.004;2023-05-09T05:08:50;13.70;;;12.40;;
59062;SDS011;44851;45.648;9.004;2023-05-09T05:11:16;13.20;;;11.93;;
59062;SDS011;44851;45.648;9.004;2023-05-09T05:13:45;14.40;;;13.00;;
59062;SDS011;44851;45.648;9.004;2023-05-09T05:16:11;14.33;;;12.93;;
59062;SDS011;44851;45.648;9.004;2023-05-09T05:18:36;14.97;;;13.10;;
59062;SDS011;44851;45.648;9.004;2023-05-09T05:21:02;14.33;;;12.83;;
59062;SDS011;44851;45.648;9.004;2023-05-09T05:23:28;15.30;;;13.70;;
59062;SDS011;44851;45.648;9.004;2023-05-09T05:25:53;14.30;;;12.87;;
59062;SDS011;44851;45.648;9.004;2023-05-09T05:28:19;17.50;;;12.20;;
59062;SDS011;44851;45.648;9.004;2023-05-09T05:30:44;13.73;;;12.27;;
59062;SDS011;44851;45.648;9.004;2023-05-09T05:33:09;14.33;;;12.63;;
59062;SDS011;44851;45.648;9.004;2023-05-09T05:35:35;13.53;;;12.10;;
59062;SDS011;44851;45.648;9.004;2023-05-09T05:38:00;13.43;;;12.13;;
59062;SDS011;44851;45.648;9.004;2023-05-09T05:40:26;13.70;;;12.30;;
59062;SDS011;44851;45.648;9.004;2023-05-09T05:42:51;13.47;;;12.07;;
59062;SDS011;44851;45.648;9.004;2023-05-09T05:45:16;13.43;;;12.13;;
59062;SDS011;44851;45.648;9.004;2023-05-09T05:47:42;12.93;;;11.67;;
59062;SDS011;44851;45.648;9.004;2023-05-09T05:50:07;12.07;;;10.77;;
59062;SDS011;44851;45.648;9.004;2023-05-09T05:52:36;12.73;;;10.80;;
59062;SDS011;44851;45.648;9.004;2023-05-09T05:55:05;12.03;;;10.83;;
59062;SDS011;44851;45.648;9.004;2023-05-09T05:57:31;13.00;;;10.60;;
59062;SDS011;44851;45.648;9.004;2023-05-09T05:59:58;11.50;;;9.97;;
59062;SDS011;44851;45.648;9.004;2023-05-09T06:02:23;12.03;;;10.87;;
59062;SDS011;44851;45.648;9.004;2023-05-09T06:04:49;12.03;;;10.33;;
59062;SDS011;44851;45.648;9.004;2023-05-09T06:07:14;14.10;;;10.20;;
59062;SDS011;44851;45.648;9.004;2023-05-09T06:09:40;10.40;;;9.40;;
59062;SDS011;44851;45.648;9.004;2023-05-09T06:12:05;52.23;;;15.23;;
59062;SDS011;44851;45.648;9.004;2023-05-09T06:14:31;11.50;;;8.43;;
59062;SDS011;44851;45.648;9.004;2023-05-09T06:16:59;14.50;;;10.07;;
59062;SDS011;44851;45.648;9.004;2023-05-09T06:19:25;9.20;;;8.17;;
59062;SDS011;44851;45.648;9.004;2023-05-09T06:21:50;11.17;;;8.43;;
59062;SDS011;44851;45.648;9.004;2023-05-09T06:24:16;15.63;;;9.57;;
59062;SDS011;44851;45.648;9.004;2023-05-09T06:26:41;9.80;;;8.90;;
59062;SDS011;44851;45.648;9.004;2023-05-09T06:29:07;9.43;;;8.30;;
59062;SDS011;44851;45.648;9.004;2023-05-09T06:31:33;8.80;;;7.87;;
59062;SDS011;44851;45.648;9.004;2023-05-09T06:34:06;8.43;;;7.60;;
59062;SDS011;44851;45.648;9.004;2023-05-09T06:36:32;8.43;;;7.63;;
59062;SDS011;44851;45.648;9.004;2023-05-09T06:38:57;8.77;;;7.90;;
59062;SDS011;44851;45.648;9.004;2023-05-09T06:41:23;8.63;;;7.83;;
59062;SDS011;44851;45.648;9.004;2023-05-09T06:43:49;12.00;;;8.43;;
59062;SDS011;44851;45.648;9.004;2023-05-09T06:46:14;9.30;;;7.63;;
59062;SDS011;44851;45.648;9.004;2023-05-09T06:48:39;9.27;;;8.40;;
59062;SDS011;44851;45.648;9.004;2023-05-09T06:51:05;9.93;;;9.00;;
59062;SDS011;44851;45.648;9.004;2023-05-09T06:53:30;11.03;;;8.90;;
59062;SDS011;44851;45.648;9.004;2023-05-09T06:55:56;9.07;;;8.17;;
59062;SDS011;44851;45.648;9.004;2023-05-09T06:58:21;9.63;;;8.00;;
59062;SDS011;44851;45.648;9.004;2023-05-09T07:00:47;10.17;;;9.10;;
59062;SDS011;44851;45.648;9.004;2023-05-09T07:03:12;9.57;;;8.50;;
59062;SDS011;44851;45.648;9.004;2023-05-09T07:05:38;9.00;;;8.20;;
59062;SDS011;44851;45.648;9.004;2023-05-09T07:08:03;9.83;;;7.93;;
59062;SDS011;44851;45.648;9.004;2023-05-09T07:10:29;7.80;;;7.10;;
59062;SDS011;44851;45.648;9.004;2023-05-09T07:12:54;8.40;;;7.60;;
59062;SDS011;44851;45.648;9.004;2023-05-09T07:15:20;10.07;;;7.67;;
59062;SDS011;44851;45.648;9.004;2023-05-09T07:17:45;8.70;;;7.80;;
59062;SDS011;44851;45.648;9.004;2023-05-09T07:20:11;8.30;;;7.47;;
59062;SDS011;44851;45.648;9.004;2023-05-09T07:22:36;8.07;;;7.27;;
59062;SDS011;44851;45.648;9.004;2023-05-09T07:25:01;8.60;;;7.80;;
59062;SDS011;44851;45.648;9.004;2023-05-09T07:27:27;23.80;;;9.50;;
59062;SDS011;44851;45.648;9.004;2023-05-09T07:29:53;10.07;;;7.60;;
59062;SDS011;44851;45.648;9.004;2023-05-09T07:32:18;8.13;;;7.33;;
59062;SDS011;44851;45.648;9.004;2023-05-09T07:34:48;8.20;;;7.50;;
59062;SDS011;44851;45.648;9.004;2023-05-09T07:37:13;9.70;;;8.70;;
59062;SDS011;44851;45.648;9.004;2023-05-09T07:39:38;8.87;;;7.97;;
59062;SDS011;44851;45.648;9.004;2023-05-09T07:42:04;10.03;;;8.03;;
59062;SDS011;44851;45.648;9.004;2023-05-09T07:44:30;8.23;;;7.43;;
59062;SDS011;44851;45.648;9.004;2023-05-09T07:46:55;8.43;;;7.37;;
59062;SDS011;44851;45.648;9.004;2023-05-09T07:49:23;8.03;;;7.23;;
59062;SDS011;44851;45.648;9.004;2023-05-09T07:51:49;8.67;;;7.87;;
59062;SDS011;44851;45.648;9.004;2023-05-09T07:54:14;9.17;;;8.27;;
59062;SDS011;44851;45.648;9.004;2023-05-09T07:56:39;9.33;;;8.53;;
59062;SDS011;44851;45.648;9.004;2023-05-09T07:59:05;9.03;;;8.23;;
59062;SDS011;44851;45.648;9.004;2023-05-09T08:01:30;9.17;;;8.27;;
59062;SDS011;44851;45.648;9.004;2023-05-09T08:03:55;9.37;;;8.23;;
59062;SDS011;44851;45.648;9.004;2023-05-09T08:06:21;8.10;;;7.30;;
59062;SDS011;44851;45.648;9.004;2023-05-09T08:08:46;8.90;;;8.00;;
59062;SDS011;44851;45.648;9.004;2023-05-09T08:11:12;9.17;;;8.13;;
59062;SDS011;44851;45.648;9.004;2023-05-09T08:13:37;9.40;;;8.43;;
59062;SDS011;44851;45.648;9.004;2023-05-09T08:16:02;8.57;;;7.77;;
59062;SDS011;44851;45.648;9.004;2023-05-09T08:18:28;9.67;;;8.37;;
59062;SDS011;44851;45.648;9.004;2023-05-09T08:20:53;12.90;;;7.97;;
59062;SDS011;44851;45.648;9.004;2023-05-09T08:23:19;13.93;;;8.77;;
59062;SDS011;44851;45.648;9.004;2023-05-09T08:25:44;8.93;;;7.97;;
59062;SDS011;44851;45.648;9.004;2023-05-09T08:28:10;8.53;;;7.73;;
59062;SDS011;44851;45.648;9.004;2023-05-09T08:30:35;9.23;;;8.33;;
59062;SDS011;44851;45.648;9.004;2023-05-09T08:33:00;8.80;;;8.00;;
59062;SDS011;44851;45.648;9.004;2023-05-09T08:35:26;19.10;;;9.50;;
59062;SDS011;44851;45.648;9.004;2023-05-09T08:37:51;8.87;;;7.97;;
59062;SDS011;44851;45.648;9.004;2023-05-09T08:40:16;9.50;;;8.40;;
59062;SDS011;44851;45.648;9.004;2023-05-09T08:42:42;9.57;;;8.67;;
59062;SDS011;44851;45.648;9.004;2023-05-09T08:45:10;12.87;;;8.97;;
59062;SDS011;44851;45.648;9.004;2023-05-09T08:47:38;10.57;;;8.70;;
59062;SDS011;44851;45.648;9.004;2023-05-09T08:50:04;8.50;;;7.77;;
59062;SDS011;44851;45.648;9.004;2023-05-09T08:52:31;18.63;;;9.50;;
59062;SDS011;44851;45.648;9.004;2023-05-09T08:54:57;10.27;;;8.00;;
59062;SDS011;44851;45.648;9.004;2023-05-09T08:57:23;8.30;;;7.43;;
59062;SDS011;44851;45.648;9.004;2023-05-09T08:59:51;8.10;;;7.40;;
59062;SDS011;44851;45.648;9.004;2023-05-09T09:02:17;8.27;;;7.47;;
59062;SDS011;44851;45.648;9.004;2023-05-09T09:04:43;8.73;;;7.93;;
59062;SDS011;44851;45.648;9.004;2023-05-09T09:07:09;8.97;;;8.00;;
59062;SDS011;44851;45.648;9.004;2023-05-09T09:09:35;9.33;;;7.77;;
59062;SDS011;44851;45.648;9.004;2023-05-09T09:12:05;9.83;;;8.63;;
59062;SDS011;44851;45.648;9.004;2023-05-09T09:14:33;9.00;;;8.10;;
59062;SDS011;44851;45.648;9.004;2023-05-09T09:17:02;9.00;;;8.10;;
59062;SDS011;44851;45.648;9.004;2023-05-09T09:19:30;8.97;;;7.97;;
59062;SDS011;44851;45.648;9.004;2023-05-09T09:21:58;8.50;;;7.60;;
59062;SDS011;44851;45.648;9.004;2023-05-09T09:24:26;9.90;;;8.50;;
59062;SDS011;44851;45.648;9.004;2023-05-09T09:26:52;10.27;;;8.20;;
59062;SDS011;44851;45.648;9.004;2023-05-09T09:29:18;8.93;;;8.13;;
59062;SDS011;44851;45.648;9.004;2023-05-09T09:31:45;9.20;;;8.30;;
59062;SDS011;44851;45.648;9.004;2023-05-09T09:34:12;8.87;;;7.93;;
59062;SDS011;44851;45.648;9.004;2023-05-09T09:36:43;11.10;;;9.27;;
59062;SDS011;44851;45.648;9.004;2023-05-09T09:39:10;9.80;;;8.93;;
59062;SDS011;44851;45.648;9.004;2023-05-09T09:41:37;8.50;;;7.63;;
59062;SDS011;44851;45.648;9.004;2023-05-09T09:44:10;8.77;;;7.93;;
59062;SDS011;44851;45.648;9.004;2023-05-09T09:49:16;9.30;;;7.40;;
59062;SDS011;44851;45.648;9.004;2023-05-09T09:51:49;8.27;;;7.47;;
59062;SDS011;44851;45.648;9.004;2023-05-09T09:54:16;7.20;;;6.60;;
59062;SDS011;44851;45.648;9.004;2023-05-09T09:56:42;7.80;;;7.10;;
59062;SDS011;44851;45.648;9.004;2023-05-09T09:59:10;6.67;;;6.07;;
59062;SDS011;44851;45.648;9.004;2023-05-09T10:04:23;7.50;;;6.80;;
59062;SDS011;44851;45.648;9.004;2023-05-09T10:06:53;7.87;;;6.80;;
59062;SDS011;44851;45.648;9.004;2023-05-09T10:09:20;7.40;;;6.37;;
59062;SDS011;44851;45.648;9.004;2023-05-09T10:11:47;7.90;;;6.43;;
59062;SDS011;44851;45.648;9.004;2023-05-09T10:14:17;7.33;;;6.73;;
59062;SDS011;44851;45.648;9.004;2023-05-09T10:16:43;8.30;;;7.60;;
59062;SDS011;44851;45.648;9.004;2023-05-09T10:19:11;7.33;;;6.70;;
59062;SDS011;44851;45.648;9.004;2023-05-09T10:21:39;8.30;;;6.90;;
59062;SDS011;44851;45.648;9.004;2023-05-09T10:24:05;6.73;;;6.13;;
59062;SDS011;44851;45.648;9.004;2023-05-09T10:26:33;8.60;;;7.43;;
59062;SDS011;44851;45.648;9.004;2023-05-09T10:29:02;8.83;;;7.53;;
59062;SDS011;44851;45.648;9.004;2023-05-09T10:31:32;7.53;;;6.83;;
59062;SDS011;44851;45.648;9.004;2023-05-09T10:34:04;9.50;;;8.63;;
59062;SDS011;44851;45.648;9.004;2023-05-09T10:36:33;11.40;;;7.73;;
59062;SDS011;44851;45.648;9.004;2023-05-09T10:39:00;8.90;;;8.10;;
59062;SDS011;44851;45.648;9.004;2023-05-09T10:41:26;9.50;;;8.70;;
59062;SDS011;44851;45.648;9.004;2023-05-09T10:43:54;8.53;;;7.73;;
59062;SDS011;44851;45.648;9.004;2023-05-09T10:46:21;9.90;;;9.00;;
59062;SDS011;44851;45.648;9.004;2023-05-09T10:48:47;9.30;;;8.40;;
59062;SDS011;44851;45.648;9.004;2023-05-09T10:51:13;10.23;;;9.23;;
59062;SDS011;44851;45.648;9.004;2023-05-09T10:53:47;11.30;;;9.23;;
59062;SDS011;44851;45.648;9.004;2023-05-09T10:58:59;9.50;;;8.20;;
59062;SDS011;44851;45.648;9.004;2023-05-09T11:03:55;8.13;;;7.43;;
59062;SDS011;44851;45.648;9.004;2023-05-09T11:14:32;10.43;;;9.43;;
59062;SDS011;44851;45.648;9.004;2023-05-09T11:17:07;9.20;;;8.30;;
59062;SDS011;44851;45.648;9.004;2023-05-09T11:22:14;8.87;;;8.07;;
59062;SDS011;44851;45.648;9.004;2023-05-09T11:24:47;10.13;;;9.13;;
59062;SDS011;44851;45.648;9.004;2023-05-09T11:27:21;9.40;;;8.37;;
59062;SDS011;44851;45.648;9.004;2023-05-09T11:29:52;9.90;;;8.93;;
59062;SDS011;44851;45.648;9.004;2023-05-09T11:32:19;9.40;;;8.50;;
59062;SDS011;44851;45.648;9.004;2023-05-09T11:34:46;11.47;;;8.67;;
59062;SDS011;44851;45.648;9.004;2023-05-09T11:37:15;8.97;;;8.07;;
59062;SDS011;44851;45.648;9.004;2023-05-09T11:39:57;11.57;;;7.90;;
59062;SDS011;44851;45.648;9.004;2023-05-09T11:42:26;12.53;;;8.40;;
59062;SDS011;44851;45.648;9.004;2023-05-09T11:44:52;8.37;;;7.47;;
59062;SDS011;44851;45.648;9.004;2023-05-09T11:47:18;18.37;;;10.40;;
59062;SDS011;44851;45.648;9.004;2023-05-09T11:49:43;13.43;;;8.83;;
59062;SDS011;44851;45.648;9.004;2023-05-09T11:52:09;10.23;;;8.43;;
59062;SDS011;44851;45.648;9.004;2023-05-09T11:54:38;9.07;;;8.37;;
59062;SDS011;44851;45.648;9.004;2023-05-09T11:57:04;9.97;;;9.03;;
59062;SDS011;44851;45.648;9.004;2023-05-09T11:59:30;11.00;;;9.73;;
59062;SDS011;44851;45.648;9.004;2023-05-09T12:01:56;10.37;;;9.43;;
59062;SDS011;44851;45.648;9.004;2023-05-09T12:04:21;9.37;;;8.57;;
59062;SDS011;44851;45.648;9.004;2023-05-09T12:06:46;10.17;;;8.47;;
59062;SDS011;44851;45.648;9.004;2023-05-09T12:09:13;9.30;;;8.40;;
59062;SDS011;44851;45.648;9.004;2023-05-09T12:11:46;12.17;;;8.87;;
59062;SDS011;44851;45.648;9.004;2023-05-09T12:14:24;10.17;;;9.13;;
59062;SDS011;44851;45.648;9.004;2023-05-09T12:16:53;9.67;;;8.77;;
59062;SDS011;44851;45.648;9.004;2023-05-09T12:19:19;9.63;;;8.77;;
59062;SDS011;44851;45.648;9.004;2023-05-09T12:21:45;10.97;;;9.97;;
59062;SDS011;44851;45.648;9.004;2023-05-09T12:24:10;13.30;;;12.10;;
59062;SDS011;44851;45.648;9.004;2023-05-09T12:26:36;12.53;;;11.43;;
59062;SDS011;44851;45.648;9.004;2023-05-09T12:29:01;11.63;;;10.63;;
59062;SDS011;44851;45.648;9.004;2023-05-09T12:31:27;12.57;;;11.30;;
59062;SDS011;44851;45.648;9.004;2023-05-09T12:33:53;11.27;;;10.17;;
59062;SDS011;44851;45.648;9.004;2023-05-09T12:36:18;10.20;;;9.30;;
59062;SDS011;44851;45.648;9.004;2023-05-09T12:38:53;10.00;;;9.10;;
59062;SDS011;44851;45.648;9.004;2023-05-09T12:41:19;11.53;;;10.43;;
59062;SDS011;44851;45.648;9.004;2023-05-09T12:43:49;12.93;;;11.43;;
59062;SDS011;44851;45.648;9.004;2023-05-09T12:46:18;11.90;;;10.73;;
59062;SDS011;44851;45.648;9.004;2023-05-09T12:48:45;12.33;;;11.23;;
59062;SDS011;44851;45.648;9.004;2023-05-09T12:51:11;12.90;;;11.80;;
59062;SDS011;44851;45.648;9.004;2023-05-09T12:53:41;12.03;;;11.00;;
59062;SDS011;44851;45.648;9.004;2023-05-09T12:56:14;13.07;;;11.97;;
59062;SDS011;44851;45.648;9.004;2023-05-09T12:58:53;14.60;;;13.30;;
59062;SDS011;44851;45.648;9.004;2023-05-09T13:01:20;14.03;;;12.27;;
59062;SDS011;44851;45.648;9.004;2023-05-09T13:03:51;13.00;;;11.60;;
59062;SDS011;44851;45.648;9.004;2023-05-09T13:06:23;16.20;;;13.97;;
59062;SDS011;44851;45.648;9.004;2023-05-09T13:08:58;14.97;;;13.40;;
59062;SDS011;44851;45.648;9.004;2023-05-09T13:11:25;14.30;;;12.23;;
59062;SDS011;44851;45.648;9.004;2023-05-09T13:13:52;13.07;;;11.80;;
59062;SDS011;44851;45.648;9.004;2023-05-09T13:16:18;14.33;;;13.03;;
59062;SDS011;44851;45.648;9.004;2023-05-09T13:18:43;14.83;;;13.43;;
59062;SDS011;44851;45.648;9.004;2023-05-09T13:21:09;14.07;;;12.60;;
59062;SDS011;44851;45.648;9.004;2023-05-09T13:23:34;12.47;;;11.37;;
59062;SDS011;44851;45.648;9.004;2023-05-09T13:26:00;14.07;;;12.77;;
59062;SDS011;44851;45.648;9.004;2023-05-09T13:28:25;13.23;;;12.03;;
59062;SDS011;44851;45.648;9.004;2023-05-09T13:30:50;12.63;;;11.53;;
59062;SDS011;44851;45.648;9.004;2023-05-09T13:33:16;13.53;;;12.17;;
59062;SDS011;44851;45.648;9.004;2023-05-09T13:35:41;14.30;;;12.90;;
59062;SDS011;44851;45.648;9.004;2023-05-09T13:38:06;17.17;;;14.23;;
59062;SDS011;44851;45.648;9.004;2023-05-09T13:40:32;14.23;;;12.77;;
59062;SDS011;44851;45.648;9.004;2023-05-09T13:42:57;14.63;;;13.20;;
59062;SDS011;44851;45.648;9.004;2023-05-09T13:45:22;15.43;;;13.93;;
59062;SDS011;44851;45.648;9.004;2023-05-09T13:47:48;15.93;;;14.33;;
59062;SDS011;44851;45.648;9.004;2023-05-09T13:50:14;14.23;;;12.73;;
59062;SDS011;44851;45.648;9.004;2023-05-09T13:52:40;13.73;;;12.43;;
59062;SDS011;44851;45.648;9.004;2023-05-09T13:55:06;15.13;;;13.63;;
59062;SDS011;44851;45.648;9.004;2023-05-09T13:57:31;14.00;;;12.50;;
59062;SDS011;44851;45.648;9.004;2023-05-09T13:59:57;15.33;;;13.70;;
59062;SDS011;44851;45.648;9.004;2023-05-09T14:02:22;13.97;;;12.57;;
59062;SDS011;44851;45.648;9.004;2023-05-09T14:04:48;13.00;;;11.80;;
59062;SDS011;44851;45.648;9.004;2023-05-09T14:07:14;13.17;;;11.97;;
59062;SDS011;44851;45.648;9.004;2023-05-09T14:09:40;13.30;;;11.67;;
59062;SDS011;44851;45.648;9.004;2023-05-09T14:12:06;11.67;;;10.53;;
59062;SDS011;44851;45.648;9.004;2023-05-09T14:14:32;11.40;;;10.37;;
59062;SDS011;44851;45.648;9.004;2023-05-09T14:16:57;11.47;;;10.27;;
59062;SDS011;44851;45.648;9.004;2023-05-09T14:19:25;26.27;;;13.23;;
59062;SDS011;44851;45.648;9.004;2023-05-09T14:21:54;42.63;;;13.97;;
59062;SDS011;44851;45.648;9.004;2023-05-09T14:24:19;24.03;;;12.97;;
59062;SDS011;44851;45.648;9.004;2023-05-09T14:26:44;31.40;;;12.93;;
59062;SDS011;44851;45.648;9.004;2023-05-09T14:29:10;53.20;;;18.90;;
59062;SDS011;44851;45.648;9.004;2023-05-09T14:31:36;36.17;;;14.87;;
59062;SDS011;44851;45.648;9.004;2023-05-09T14:34:02;14.40;;;13.03;;
59062;SDS011;44851;45.648;9.004;2023-05-09T14:36:31;15.23;;;13.70;;
59062;SDS011;44851;45.648;9.004;2023-05-09T14:38:57;15.73;;;14.20;;
59062;SDS011;44851;45.648;9.004;2023-05-09T14:41:22;16.40;;;14.80;;
59062;SDS011;44851;45.648;9.004;2023-05-09T14:43:47;20.37;;;16.37;;
59062;SDS011;44851;45.648;9.004;2023-05-09T14:46:13;16.70;;;15.13;;
59062;SDS011;44851;45.648;9.004;2023-05-09T14:48:38;40.07;;;18.77;;
59062;SDS011;44851;45.648;9.004;2023-05-09T14:51:04;44.67;;;19.90;;
59062;SDS011;44851;45.648;9.004;2023-05-09T14:53:29;50.53;;;20.33;;
59062;SDS011;44851;45.648;9.004;2023-05-09T14:55:55;27.80;;;16.87;;
59062;SDS011;44851;45.648;9.004;2023-05-09T14:58:21;20.20;;;16.37;;
59062;SDS011;44851;45.648;9.004;2023-05-09T15:00:47;24.40;;;16.40;;
59062;SDS011;44851;45.648;9.004;2023-05-09T15:03:13;15.93;;;14.33;;
59062;SDS011;44851;45.648;9.004;2023-05-09T15:05:39;16.20;;;14.60;;
59062;SDS011;44851;45.648;9.004;2023-05-09T15:08:05;21.03;;;15.70;;